Linda — OJML — position and weather

sailwx.info

Track history (hours):
 
Tides and Currents Weather Stations Pressure Air Temp Water Temp Dewpoint Dewpoint Depression Visibility Wind Speed Wind Dir Waves Ship Positions

Linda

Last reported at 2014-Nov-21 11:15 UTC. Time now 2014-Nov-23 02:09 UTC.
Position N 59°39' E 023°08'.

Length 141 m; draft 6.7 m.

Type: Cargo ship. MMSI: 230984000.

Date/timePositionNaut miles runAvg speedWind from/ knotsBaromVisibWave heightAir tempDewpointWater temp
2014-Nov-21 11:15N 59°39' E 023°08'1115.8
2014-Nov-21 10:34N 59°41' E 023°29'1615.9
2014-Nov-21 09:33N 59°45' E 023°60'2813.9
2014-Nov-21 07:33N 59°50' E 024°55'1616.0
2014-Nov-21 06:32N 59°53' E 025°26'1717.3
2014-Nov-21 05:32N 59°57' E 025°60'1818.1
2014-Nov-21 04:33N 60°01' E 026°34'3 0.1
2014-Nov-19 23:21N 59°60' E 026°38'4515.4
2014-Nov-19 20:26N 60°04' E 025°09'910.6
2014-Nov-19 19:33N 60°13' E 025°11'0 0.0
2014-Nov-19 18:26N 60°13' E 025°11'0 0.0
2014-Nov-19 17:32N 60°13' E 025°11'0 0.0
2014-Nov-19 16:20N 60°13' E 025°11'0 0.0
2014-Nov-19 15:32N 60°13' E 025°11'0 0.0
2014-Nov-19 14:11N 60°13' E 025°11'0 0.0
2014-Nov-19 13:32N 60°13' E 025°11'0 0.0
2014-Nov-19 12:33N 60°13' E 025°11'5 5.4
2014-Nov-19 11:34N 60°08' E 025°12'2417.3
2014-Nov-19 10:12N 59°47' E 024°47'1117.0
2014-Nov-19 09:33N 59°44' E 024°27'2517.0
2014-Nov-19 08:04N 59°35' E 023°40'352 9.1
2014-Nov-17 17:33N 55°39' E 015°32'1616.3
2014-Nov-17 16:32N 55°31' E 015°07'1716.7
2014-Nov-17 15:32N 55°23' E 014°41'1716.8
2014-Nov-17 14:33N 55°10' E 014°22'6716.7
2014-Nov-17 10:33N 54°39' E 012°38'1616.4
2014-Nov-17 09:33N 54°30' E 012°16'1615.4
2014-Nov-17 08:30N 54°25' E 011°49'2216.7
2014-Nov-17 07:11N 54°33' E 011°14'1016.0
2014-Nov-17 06:33N 54°35' E 010°57'1716.9
2014-Nov-17 05:33N 54°32' E 010°29'1413.5
2014-Nov-17 04:33N 54°23' E 010°11'2 2.1
2014-Nov-17 03:33N 54°22' E 010°08'6 6.4
2014-Nov-17 02:33N 54°20' E 009°57'7 6.6
2014-Nov-17 01:33N 54°21' E 009°46'7 7.2
2014-Nov-17 00:33N 54°16' E 009°37'8 7.6
2014-Nov-16 23:33N 54°11' E 009°27'13 6.5
2014-Nov-16 21:29N 53°59' E 009°17'7 7.6
2014-Nov-16 20:33N 53°54' E 009°09'4 4.3
2014-Nov-16 19:34N 53°52' E 009°02'1515.4
2014-Nov-16 18:34N 53°57' E 008°38'1615.9
2014-Nov-16 17:33N 53°60' E 008°11'1616.4
2014-Nov-16 16:33N 53°56' E 007°44'5016.8
2014-Nov-16 13:33N 53°44' E 006°21'1717.0
2014-Nov-16 12:33N 53°40' E 005°53'1717.4
2014-Nov-16 11:33N 53°34' E 005°26'1817.9
2014-Nov-16 10:33N 53°27' E 004°58'1717.1
2014-Nov-16 09:33N 53°16' E 004°36'5417.6
2014-Nov-16 06:29N 52°31' E 003°46'1616.9
2014-Nov-16 05:32N 52°17' E 003°33'1816.9
2014-Nov-16 04:28N 52°00' E 003°23'1516.5
2014-Nov-16 03:33N 51°46' E 003°16'1413.9
2014-Nov-16 02:34N 51°33' E 003°25'1211.9
2014-Nov-16 01:34N 51°26' E 003°40'9 8.5
2014-Nov-16 00:34N 51°20' E 003°49'3 3.5
2014-Nov-15 23:34N 51°16' E 003°50'7 7.1
2014-Nov-15 22:33N 51°10' E 003°47'3 2.7
2014-Nov-15 21:28N 51°07' E 003°45'0 0.0
2014-Nov-15 20:31N 51°07' E 003°45'0 0.0
2014-Nov-15 19:31N 51°07' E 003°45'0 0.0
2014-Nov-15 18:28N 51°07' E 003°45'0 0.0
2014-Nov-15 17:31N 51°07' E 003°45'0 0.0
2014-Nov-15 16:31N 51°07' E 003°45'0 0.0
2014-Nov-15 15:28N 51°07' E 003°45'0 0.0
2014-Nov-15 14:31N 51°07' E 003°45'0 0.0
2014-Nov-15 13:31N 51°07' E 003°45'0 0.0
2014-Nov-15 12:28N 51°07' E 003°45'0 0.0
2014-Nov-15 11:28N 51°07' E 003°45'0 0.0
2014-Nov-15 10:28N 51°07' E 003°45'0 0.0
2014-Nov-15 09:28N 51°07' E 003°45'0 0.0
2014-Nov-15 08:28N 51°07' E 003°45'0 0.0
2014-Nov-15 07:28N 51°07' E 003°45'0 0.0
2014-Nov-15 06:31N 51°07' E 003°45'0 0.0
2014-Nov-15 05:28N 51°07' E 003°45'0 0.0
2014-Nov-15 04:31N 51°07' E 003°45'0 0.0
2014-Nov-15 03:31N 51°07' E 003°45'0 0.0
2014-Nov-15 02:33N 51°07' E 003°45'5 4.6
2014-Nov-15 01:33N 51°11' E 003°48'5 5.4
2014-Nov-15 00:33N 51°16' E 003°50'4 3.5
2014-Nov-14 23:33N 51°20' E 003°49'6 6.2
2014-Nov-14 22:33N 51°24' E 003°42'1313.0
2014-Nov-14 21:33N 51°24' E 003°22'1816.3
2014-Nov-14 20:28N 51°22' E 002°54'1516.2
2014-Nov-14 19:33N 51°22' E 002°30'1616.3
2014-Nov-14 18:33N 51°22' E 002°04'1616.0
2014-Nov-14 17:34N 51°29' E 001°41'1514.6
2014-Nov-14 16:33N 51°29' E 001°17'1515.3
2014-Nov-14 15:33N 51°29' E 000°53'6 5.6
2014-Nov-14 14:32N 51°26' E 000°44'0 0.0
2014-Nov-14 12:32N 51°26' E 000°44'0 0.0
2014-Nov-14 11:32N 51°26' E 000°44'0 0.0
2014-Nov-14 10:32N 51°26' E 000°44'0 0.0
2014-Nov-14 09:32N 51°26' E 000°44'0 0.0
2014-Nov-14 08:32N 51°26' E 000°44'0 0.0
2014-Nov-14 07:32N 51°26' E 000°44'0 0.0
2014-Nov-14 06:32N 51°26' E 000°44'0 0.0
2014-Nov-14 05:33N 51°26' E 000°44'9 9.2
2014-Nov-14 04:34N 51°29' E 000°58'1515.2
2014-Nov-14 03:34N 51°28' E 001°23'1312.9
2014-Nov-14 02:33N 51°35' E 001°41'1515.0
2014-Nov-14 01:34N 51°50' E 001°43'1615.5
2014-Nov-14 00:34N 52°05' E 001°48'1616.1
2014-Nov-13 23:33N 52°21' E 001°52'1616.1
2014-Nov-13 22:33N 52°37' E 001°54'1414.3
2014-Nov-13 21:33N 52°50' E 001°46'1515.5
2014-Nov-13 20:33N 53°02' E 001°29'4614.9
2014-Nov-13 17:28N 53°41' E 000°49'1314.3
2014-Nov-13 16:33N 53°51' E 000°34'1414.1
2014-Nov-13 15:34N 54°01' E 000°17'1414.0
2014-Nov-13 14:33N 54°11' E 000°01'1414.2
2014-Nov-13 13:33N 54°21' W 000°17'1414.4
2014-Nov-13 12:33N 54°32' W 000°32'22 6.2
2014-Nov-13 09:06N 54°36' W 001°09'0 0.0
2014-Nov-13 08:24N 54°36' W 001°09'0 0.0
2014-Nov-13 06:12N 54°36' W 001°09'0 0.0
2014-Nov-13 05:27N 54°36' W 001°09'0 0.0
2014-Nov-13 04:09N 54°36' W 001°09'0 0.0
2014-Nov-13 02:15N 54°36' W 001°09'0 0.0
2014-Nov-13 01:27N 54°36' W 001°09'0 0.0
2014-Nov-13 00:30N 54°36' W 001°09'0 0.0
2014-Nov-12 23:33N 54°36' W 001°09'0 0.0
2014-Nov-12 22:15N 54°36' W 001°09'0 0.0
2014-Nov-12 21:33N 54°36' W 001°09'1 0.7
2014-Nov-12 20:33N 54°37' W 001°09'6 5.5
2014-Nov-12 19:34N 54°41' W 001°04'0 0.0
2014-Nov-12 18:33N 54°41' W 001°04'0 0.0
2014-Nov-12 17:33N 54°41' W 001°04'0 0.0
2014-Nov-12 16:33N 54°41' W 001°04'0 0.0
2014-Nov-12 15:33N 54°41' W 001°04'0 0.0
2014-Nov-12 14:33N 54°41' W 001°04'0 0.0
2014-Nov-12 13:32N 54°41' W 001°04'0 0.0
2014-Nov-12 12:33N 54°41' W 001°04'5 4.9
2014-Nov-12 11:33N 54°40' W 000°56'1714.5
2014-Nov-12 10:24N 54°33' W 000°30'1213.8
2014-Nov-12 09:34N 54°29' W 000°11'1313.5
2014-Nov-12 08:34N 54°28' E 000°12'1313.2
2014-Nov-12 07:33N 54°27' E 000°35'1613.6
2014-Nov-12 06:21N 54°26' E 001°03'1914.9
2014-Nov-12 05:06N 54°25' E 001°35'19215.3
2014-Nov-11 16:33N 54°12' E 007°04'1616.0
2014-Nov-11 15:33N 54°12' E 007°31'1615.7
2014-Nov-11 14:33N 54°05' E 007°55'1514.8
2014-Nov-11 13:33N 53°60' E 008°19'1413.9
2014-Nov-11 12:34N 53°55' E 008°41'1212.2
2014-Nov-11 11:34N 53°51' E 009°01'  
Track history (hours):
 
Tides and Currents Weather Stations Pressure Air Temp Water Temp Dewpoint Dewpoint Depression Visibility Wind Speed Wind Dir Waves Ship Positions

Linda

Last reported at 2014-Nov-21 11:15 UTC. Time now 2014-Nov-23 02:09 UTC.
Position N 59°39' E 023°08'.

Length 141 m; draft 6.7 m.

Type: Cargo ship. MMSI: 230984000.

Date/timePositionNaut miles runAvg speedWind from/ knotsBaromVisibWave heightAir tempDewpointWater temp
2014-Nov-21 11:15N 59°39' E 023°08'1115.8
2014-Nov-21 10:34N 59°41' E 023°29'1615.9
2014-Nov-21 09:33N 59°45' E 023°60'2813.9
2014-Nov-21 07:33N 59°50' E 024°55'1616.0
2014-Nov-21 06:32N 59°53' E 025°26'1717.3
2014-Nov-21 05:32N 59°57' E 025°60'1818.1
2014-Nov-21 04:33N 60°01' E 026°34'3 0.1
2014-Nov-19 23:21N 59°60' E 026°38'4515.4
2014-Nov-19 20:26N 60°04' E 025°09'910.6
2014-Nov-19 19:33N 60°13' E 025°11'0 0.0
2014-Nov-19 18:26N 60°13' E 025°11'0 0.0
2014-Nov-19 17:32N 60°13' E 025°11'0 0.0
2014-Nov-19 16:20N 60°13' E 025°11'0 0.0
2014-Nov-19 15:32N 60°13' E 025°11'0 0.0
2014-Nov-19 14:11N 60°13' E 025°11'0 0.0
2014-Nov-19 13:32N 60°13' E 025°11'0 0.0
2014-Nov-19 12:33N 60°13' E 025°11'5 5.4
2014-Nov-19 11:34N 60°08' E 025°12'2417.3
2014-Nov-19 10:12N 59°47' E 024°47'1117.0
2014-Nov-19 09:33N 59°44' E 024°27'2517.0
2014-Nov-19 08:04N 59°35' E 023°40'352 9.1
2014-Nov-17 17:33N 55°39' E 015°32'1616.3
2014-Nov-17 16:32N 55°31' E 015°07'1716.7
2014-Nov-17 15:32N 55°23' E 014°41'1716.8
2014-Nov-17 14:33N 55°10' E 014°22'6716.7
2014-Nov-17 10:33N 54°39' E 012°38'1616.4
2014-Nov-17 09:33N 54°30' E 012°16'1615.4
2014-Nov-17 08:30N 54°25' E 011°49'2216.7
2014-Nov-17 07:11N 54°33' E 011°14'1016.0
2014-Nov-17 06:33N 54°35' E 010°57'1716.9
2014-Nov-17 05:33N 54°32' E 010°29'1413.5
2014-Nov-17 04:33N 54°23' E 010°11'2 2.1
2014-Nov-17 03:33N 54°22' E 010°08'6 6.4
2014-Nov-17 02:33N 54°20' E 009°57'7 6.6
2014-Nov-17 01:33N 54°21' E 009°46'7 7.2
2014-Nov-17 00:33N 54°16' E 009°37'8 7.6
2014-Nov-16 23:33N 54°11' E 009°27'13 6.5
2014-Nov-16 21:29N 53°59' E 009°17'7 7.6
2014-Nov-16 20:33N 53°54' E 009°09'4 4.3
2014-Nov-16 19:34N 53°52' E 009°02'1515.4
2014-Nov-16 18:34N 53°57' E 008°38'1615.9
2014-Nov-16 17:33N 53°60' E 008°11'1616.4
2014-Nov-16 16:33N 53°56' E 007°44'5016.8
2014-Nov-16 13:33N 53°44' E 006°21'1717.0
2014-Nov-16 12:33N 53°40' E 005°53'1717.4
2014-Nov-16 11:33N 53°34' E 005°26'1817.9
2014-Nov-16 10:33N 53°27' E 004°58'1717.1
2014-Nov-16 09:33N 53°16' E 004°36'5417.6
2014-Nov-16 06:29N 52°31' E 003°46'1616.9
2014-Nov-16 05:32N 52°17' E 003°33'1816.9
2014-Nov-16 04:28N 52°00' E 003°23'1516.5
2014-Nov-16 03:33N 51°46' E 003°16'1413.9
2014-Nov-16 02:34N 51°33' E 003°25'1211.9
2014-Nov-16 01:34N 51°26' E 003°40'9 8.5
2014-Nov-16 00:34N 51°20' E 003°49'3 3.5
2014-Nov-15 23:34N 51°16' E 003°50'7 7.1
2014-Nov-15 22:33N 51°10' E 003°47'3 2.7
2014-Nov-15 21:28N 51°07' E 003°45'0 0.0
2014-Nov-15 20:31N 51°07' E 003°45'0 0.0
2014-Nov-15 19:31N 51°07' E 003°45'0 0.0
2014-Nov-15 18:28N 51°07' E 003°45'0 0.0
2014-Nov-15 17:31N 51°07' E 003°45'0 0.0
2014-Nov-15 16:31N 51°07' E 003°45'0 0.0
2014-Nov-15 15:28N 51°07' E 003°45'0 0.0
2014-Nov-15 14:31N 51°07' E 003°45'0 0.0
2014-Nov-15 13:31N 51°07' E 003°45'0 0.0
2014-Nov-15 12:28N 51°07' E 003°45'0 0.0
2014-Nov-15 11:28N 51°07' E 003°45'0 0.0
2014-Nov-15 10:28N 51°07' E 003°45'0 0.0
2014-Nov-15 09:28N 51°07' E 003°45'0 0.0
2014-Nov-15 08:28N 51°07' E 003°45'0 0.0
2014-Nov-15 07:28N 51°07' E 003°45'0 0.0
2014-Nov-15 06:31N 51°07' E 003°45'0 0.0
2014-Nov-15 05:28N 51°07' E 003°45'0 0.0
2014-Nov-15 04:31N 51°07' E 003°45'0 0.0
2014-Nov-15 03:31N 51°07' E 003°45'0 0.0
2014-Nov-15 02:33N 51°07' E 003°45'5 4.6
2014-Nov-15 01:33N 51°11' E 003°48'5 5.4
2014-Nov-15 00:33N 51°16' E 003°50'4 3.5
2014-Nov-14 23:33N 51°20' E 003°49'6 6.2
2014-Nov-14 22:33N 51°24' E 003°42'1313.0
2014-Nov-14 21:33N 51°24' E 003°22'1816.3
2014-Nov-14 20:28N 51°22' E 002°54'1516.2
2014-Nov-14 19:33N 51°22' E 002°30'1616.3
2014-Nov-14 18:33N 51°22' E 002°04'1616.0
2014-Nov-14 17:34N 51°29' E 001°41'1514.6
2014-Nov-14 16:33N 51°29' E 001°17'1515.3
2014-Nov-14 15:33N 51°29' E 000°53'6 5.6
2014-Nov-14 14:32N 51°26' E 000°44'0 0.0
2014-Nov-14 12:32N 51°26' E 000°44'0 0.0
2014-Nov-14 11:32N 51°26' E 000°44'0 0.0
2014-Nov-14 10:32N 51°26' E 000°44'0 0.0
2014-Nov-14 09:32N 51°26' E 000°44'0 0.0
2014-Nov-14 08:32N 51°26' E 000°44'0 0.0
2014-Nov-14 07:32N 51°26' E 000°44'0 0.0
2014-Nov-14 06:32N 51°26' E 000°44'0 0.0
2014-Nov-14 05:33N 51°26' E 000°44'9 9.2
2014-Nov-14 04:34N 51°29' E 000°58'1515.2
2014-Nov-14 03:34N 51°28' E 001°23'1312.9
2014-Nov-14 02:33N 51°35' E 001°41'1515.0
2014-Nov-14 01:34N 51°50' E 001°43'1615.5
2014-Nov-14 00:34N 52°05' E 001°48'1616.1
2014-Nov-13 23:33N 52°21' E 001°52'1616.1
2014-Nov-13 22:33N 52°37' E 001°54'1414.3
2014-Nov-13 21:33N 52°50' E 001°46'1515.5
2014-Nov-13 20:33N 53°02' E 001°29'4614.9
2014-Nov-13 17:28N 53°41' E 000°49'1314.3
2014-Nov-13 16:33N 53°51' E 000°34'1414.1
2014-Nov-13 15:34N 54°01' E 000°17'1414.0
2014-Nov-13 14:33N 54°11' E 000°01'1414.2
2014-Nov-13 13:33N 54°21' W 000°17'1414.4
2014-Nov-13 12:33N 54°32' W 000°32'22 6.2
2014-Nov-13 09:06N 54°36' W 001°09'0 0.0
2014-Nov-13 08:24N 54°36' W 001°09'0 0.0
2014-Nov-13 06:12N 54°36' W 001°09'0 0.0
2014-Nov-13 05:27N 54°36' W 001°09'0 0.0
2014-Nov-13 04:09N 54°36' W 001°09'0 0.0
2014-Nov-13 02:15N 54°36' W 001°09'0 0.0
2014-Nov-13 01:27N 54°36' W 001°09'0 0.0
2014-Nov-13 00:30N 54°36' W 001°09'0 0.0
2014-Nov-12 23:33N 54°36' W 001°09'0 0.0
2014-Nov-12 22:15N 54°36' W 001°09'0 0.0
2014-Nov-12 21:33N 54°36' W 001°09'1 0.7
2014-Nov-12 20:33N 54°37' W 001°09'6 5.5
2014-Nov-12 19:34N 54°41' W 001°04'0 0.0
2014-Nov-12 18:33N 54°41' W 001°04'0 0.0
2014-Nov-12 17:33N 54°41' W 001°04'0 0.0
2014-Nov-12 16:33N 54°41' W 001°04'0 0.0
2014-Nov-12 15:33N 54°41' W 001°04'0 0.0
2014-Nov-12 14:33N 54°41' W 001°04'0 0.0
2014-Nov-12 13:32N 54°41' W 001°04'0 0.0
2014-Nov-12 12:33N 54°41' W 001°04'5 4.9
2014-Nov-12 11:33N 54°40' W 000°56'1714.5
2014-Nov-12 10:24N 54°33' W 000°30'1213.8
2014-Nov-12 09:34N 54°29' W 000°11'1313.5
2014-Nov-12 08:34N 54°28' E 000°12'1313.2
2014-Nov-12 07:33N 54°27' E 000°35'1613.6
2014-Nov-12 06:21N 54°26' E 001°03'1914.9
2014-Nov-12 05:06N 54°25' E 001°35'19215.3
2014-Nov-11 16:33N 54°12' E 007°04'1616.0
2014-Nov-11 15:33N 54°12' E 007°31'1615.7
2014-Nov-11 14:33N 54°05' E 007°55'1514.8
2014-Nov-11 13:33N 53°60' E 008°19'1413.9
2014-Nov-11 12:34N 53°55' E 008°41'1212.2
2014-Nov-11 11:34N 53°51' E 009°01'  

Dump ship's entire track history